Time;durP1;ratioP1;P1;durP2;ratioP2;P2;SDS_P1;SDS_P2;PMS_P1;PMS_P2;Temp;Humidity;BMP_temperature;BMP_pressure;BME280_temperature;BME280_humidity;BME280_pressure;Samples;Min_cycle;Max_cycle;Signal;HPM_P1;HPM_P2
2023/06/11 00:00:36;;;;;;;7.80;7.10;;;19.00;99.90;;;;;;5133182;27;20928;-65
2023/06/11 00:03:01;;;;;;;8.10;7.30;;;19.00;99.90;;;;;;5151600;27;20256;-66
2023/06/11 00:05:28;;;;;;;8.07;7.30;;;18.90;99.90;;;;;;5132991;27;20179;-65
2023/06/11 00:07:55;;;;;;;9.63;6.70;;;18.80;99.90;;;;;;5151658;27;20967;-66
2023/06/11 00:10:22;;;;;;;9.23;7.60;;;18.80;99.90;;;;;;5132827;27;20422;-65
2023/06/11 00:12:47;;;;;;;8.17;7.37;;;18.80;99.90;;;;;;5151476;27;20413;-65
2023/06/11 00:15:13;;;;;;;9.60;7.67;;;18.80;99.90;;;;;;5132749;27;20920;-66
2023/06/11 00:17:39;;;;;;;9.87;8.30;;;18.80;99.90;;;;;;5151341;27;20196;-66
2023/06/11 00:20:11;;;;;;;11.43;8.03;;;18.80;99.90;;;;;;5151187;27;20183;-65
2023/06/11 00:22:37;;;;;;;8.23;7.47;;;18.80;99.90;;;;;;5151200;27;20558;-65
2023/06/11 00:25:08;;;;;;;8.40;7.60;;;18.70;99.90;;;;;;5151221;27;20412;-66
2023/06/11 00:27:37;;;;;;;8.10;7.30;;;18.70;99.90;;;;;;5132402;27;20545;-65
2023/06/11 00:30:04;;;;;;;9.80;8.80;;;18.80;99.90;;;;;;5151308;27;20409;-66
2023/06/11 00:32:35;;;;;;;10.43;8.90;;;18.90;99.90;;;;;;5151016;27;20406;-65
2023/06/11 00:35:06;;;;;;;11.53;8.57;;;18.80;99.90;;;;;;5151820;27;20522;-65
2023/06/11 00:37:32;;;;;;;9.30;8.00;;;18.90;99.90;;;;;;5151207;27;20513;-65
2023/06/11 00:39:58;;;;;;;9.13;8.13;;;18.80;99.90;;;;;;5151214;27;20535;-66
2023/06/11 00:42:23;;;;;;;7.60;6.90;;;18.90;99.90;;;;;;5150954;27;20468;-65
2023/06/11 00:44:49;;;;;;;8.37;7.57;;;18.90;99.90;;;;;;5151701;27;20178;-65
2023/06/11 00:47:18;;;;;;;9.37;8.50;;;18.80;99.90;;;;;;5152025;27;20181;-65
2023/06/11 00:49:44;;;;;;;8.17;7.37;;;18.80;99.90;;;;;;5152174;27;20264;-65
2023/06/11 00:52:14;;;;;;;9.37;8.10;;;18.80;99.90;;;;;;5152057;27;20424;-65
2023/06/11 00:54:41;;;;;;;10.93;8.50;;;18.80;99.90;;;;;;5152159;27;20412;-65
2023/06/11 00:57:07;;;;;;;9.63;6.90;;;18.70;99.90;;;;;;5133158;27;20415;-65
2023/06/11 00:59:34;;;;;;;10.30;7.10;;;18.60;99.90;;;;;;5151469;27;20794;-65
2023/06/11 01:02:08;;;;;;;9.60;8.13;;;18.60;99.90;;;;;;5151393;27;20492;-65
2023/06/11 01:04:36;;;;;;;7.60;6.90;;;18.60;99.90;;;;;;5151611;27;20435;-65
2023/06/11 01:07:06;;;;;;;10.10;7.37;;;18.70;99.90;;;;;;5151025;27;20412;-65
2023/06/11 01:09:33;;;;;;;8.07;7.23;;;18.60;99.90;;;;;;5151058;27;20418;-65
2023/06/11 01:11:59;;;;;;;10.80;7.40;;;18.60;99.90;;;;;;5151037;27;20453;-65
2023/06/11 01:14:25;;;;;;;8.33;7.53;;;18.70;99.90;;;;;;5150870;27;20450;-67
2023/06/11 01:17:04;;;;;;;7.37;6.60;;;18.70;99.90;;;;;;5150999;27;20184;-64
2023/06/11 01:19:33;;;;;;;7.23;6.53;;;18.80;99.90;;;;;;5150948;27;20409;-64
2023/06/11 01:22:05;;;;;;;9.33;6.43;;;18.80;99.90;;;;;;5150845;27;20460;-65
2023/06/11 01:24:51;;;;;;;7.50;6.80;;;18.80;99.90;;;;;;5132927;27;20933;-65
2023/06/11 01:27:37;;;;;;;7.20;6.57;;;18.80;99.90;;;;;;5150772;27;20423;-65
2023/06/11 01:30:04;;;;;;;6.80;6.20;;;18.90;99.90;;;;;;5151042;27;20398;-66
2023/06/11 01:32:32;;;;;;;7.43;6.57;;;18.90;99.90;;;;;;5150968;27;20402;-65
2023/06/11 01:35:01;;;;;;;8.93;6.50;;;18.90;99.90;;;;;;5150811;27;20947;-66
2023/06/11 01:37:29;;;;;;;7.73;7.00;;;18.80;99.90;;;;;;5150368;27;20443;-65
2023/06/11 01:39:55;;;;;;;9.33;6.40;;;18.80;99.90;;;;;;5150805;27;20417;-65
2023/06/11 01:42:21;;;;;;;6.27;5.77;;;18.80;99.90;;;;;;5150542;27;20516;-65
2023/06/11 01:44:46;;;;;;;7.53;6.83;;;18.80;99.90;;;;;;5150738;27;20909;-65
2023/06/11 01:47:12;;;;;;;9.43;6.33;;;18.80;99.90;;;;;;5150811;27;20527;-66
2023/06/11 01:49:38;;;;;;;6.63;6.03;;;18.80;99.90;;;;;;5150758;27;20181;-65
2023/06/11 01:52:04;;;;;;;9.40;7.30;;;18.70;99.90;;;;;;5150611;27;20192;-65
2023/06/11 01:54:29;;;;;;;7.90;6.27;;;18.60;99.90;;;;;;5152985;27;20884;-65
2023/06/11 01:56:55;;;;;;;7.83;6.57;;;18.60;99.90;;;;;;5136231;27;20426;-65
2023/06/11 01:59:21;;;;;;;6.80;6.07;;;18.50;99.90;;;;;;5135950;27;20202;-65
2023/06/11 02:02:02;;;;;;;6.93;6.23;;;18.50;99.90;;;;;;5154358;27;20203;-65
2023/06/11 02:04:27;;;;;;;10.10;7.13;;;18.50;99.90;;;;;;5154458;27;20183;-65
2023/06/11 02:06:53;;;;;;;7.80;6.70;;;18.40;99.90;;;;;;5135486;27;20509;-65
2023/06/11 02:09:19;;;;;;;7.37;6.67;;;18.30;99.90;;;;;;5153877;27;20216;-65
2023/06/11 02:11:44;;;;;;;7.43;6.77;;;18.20;99.90;;;;;;5135221;27;20177;-65
2023/06/11 02:14:10;;;;;;;7.10;6.50;;;18.10;99.90;;;;;;5153866;27;20191;-65
2023/06/11 02:16:35;;;;;;;8.00;6.87;;;18.00;99.90;;;;;;5153605;27;20267;-65
2023/06/11 02:19:01;;;;;;;10.03;7.30;;;18.00;99.90;;;;;;5153471;27;20210;-65
2023/06/11 02:21:27;;;;;;;6.97;6.37;;;18.00;99.90;;;;;;5153366;27;20611;-65
2023/06/11 02:23:52;;;;;;;7.70;6.60;;;18.10;99.90;;;;;;5153351;27;20187;-65
2023/06/11 02:26:18;;;;;;;9.37;6.80;;;18.10;99.90;;;;;;5153188;27;20203;-65
2023/06/11 02:28:43;;;;;;;7.73;6.93;;;18.10;99.90;;;;;;5153157;27;20195;-65
2023/06/11 02:31:09;;;;;;;9.60;6.80;;;18.00;99.90;;;;;;5153258;27;20226;-66
2023/06/11 02:33:35;;;;;;;7.53;6.53;;;18.00;99.90;;;;;;5153038;27;20599;-65
2023/06/11 02:36:00;;;;;;;7.03;6.43;;;17.90;99.90;;;;;;5117277;27;20666;-65
2023/06/11 02:38:26;;;;;;;7.60;6.80;;;17.90;99.90;;;;;;5152942;27;20686;-65
2023/06/11 02:40:51;;;;;;;6.83;6.23;;;17.80;99.90;;;;;;5153119;27;20272;-65
2023/06/11 02:43:17;;;;;;;9.50;6.33;;;17.80;99.90;;;;;;5152834;27;20168;-65
2023/06/11 02:45:42;;;;;;;9.13;7.40;;;17.90;99.90;;;;;;5152716;27;20785;-65
2023/06/11 02:48:08;;;;;;;6.80;6.20;;;18.00;99.90;;;;;;5152745;27;20240;-65
2023/06/11 02:50:33;;;;;;;7.53;6.83;;;18.00;99.90;;;;;;5152538;27;20663;-65
2023/06/11 02:52:59;;;;;;;8.90;7.40;;;17.90;99.90;;;;;;5152562;27;20182;-65
2023/06/11 02:55:25;;;;;;;7.57;6.83;;;17.90;99.90;;;;;;5152413;27;20191;-65
2023/06/11 02:57:51;;;;;;;7.40;6.70;;;17.80;99.90;;;;;;5116590;27;20293;-66
2023/06/11 03:00:16;;;;;;;9.50;6.90;;;17.80;99.90;;;;;;5133823;27;20896;-65
2023/06/11 03:02:42;;;;;;;8.57;7.73;;;17.80;99.90;;;;;;5152465;27;20209;-65
2023/06/11 03:05:08;;;;;;;9.50;7.93;;;17.70;99.90;;;;;;5152234;27;20239;-65
2023/06/11 03:07:33;;;;;;;9.47;8.47;;;17.80;99.90;;;;;;5152208;27;20682;-65
2023/06/11 03:09:59;;;;;;;8.93;8.07;;;17.70;99.90;;;;;;5152054;27;20408;-65
2023/06/11 03:12:24;;;;;;;9.40;7.60;;;17.80;99.90;;;;;;5152029;27;20192;-65
2023/06/11 03:14:50;;;;;;;8.77;7.87;;;17.80;99.90;;;;;;5151934;27;20676;-65
2023/06/11 03:17:15;;;;;;;8.03;7.23;;;17.70;99.90;;;;;;5133212;27;20230;-65
2023/06/11 03:19:41;;;;;;;9.73;8.63;;;17.70;99.90;;;;;;5151791;27;20186;-65
2023/06/11 03:22:07;;;;;;;10.10;8.90;;;17.70;99.90;;;;;;5151733;27;20214;-65
2023/06/11 03:24:32;;;;;;;10.60;8.27;;;17.60;99.90;;;;;;5152296;27;20180;-65
2023/06/11 03:26:58;;;;;;;10.23;8.93;;;17.60;99.90;;;;;;5133107;27;20198;-65
2023/06/11 03:29:23;;;;;;;9.60;8.70;;;17.60;99.90;;;;;;5151596;27;20571;-65
2023/06/11 03:31:49;;;;;;;12.17;8.67;;;17.60;99.90;;;;;;5151636;27;20193;-65
2023/06/11 03:34:15;;;;;;;9.07;8.07;;;17.60;99.90;;;;;;5133037;27;20731;-65
2023/06/11 03:36:40;;;;;;;10.50;9.50;;;17.50;99.90;;;;;;5151540;27;20187;-65
2023/06/11 03:39:06;;;;;;;10.73;8.90;;;17.50;99.90;;;;;;5151636;27;20221;-65
2023/06/11 03:41:31;;;;;;;19.13;10.03;;;17.40;99.90;;;;;;5151473;27;20210;-65
2023/06/11 03:43:57;;;;;;;13.20;9.43;;;17.40;99.90;;;;;;5151251;27;20554;-64
2023/06/11 03:46:23;;;;;;;9.93;8.93;;;17.50;99.90;;;;;;5151490;27;20180;-65
2023/06/11 03:48:48;;;;;;;10.10;9.00;;;17.60;99.90;;;;;;5132436;27;20203;-66
2023/06/11 03:51:15;;;;;;;11.00;9.73;;;17.60;99.90;;;;;;5151266;27;20665;-65
2023/06/11 03:53:41;;;;;;;13.60;9.63;;;17.60;99.90;;;;;;5151248;27;20420;-65
2023/06/11 03:56:06;;;;;;;11.00;9.70;;;17.60;99.90;;;;;;5151306;27;20418;-65
2023/06/11 03:58:32;;;;;;;10.27;9.23;;;17.50;99.90;;;;;;5151113;27;20203;-65
2023/06/11 04:00:58;;;;;;;10.17;9.07;;;17.50;99.90;;;;;;5151412;27;20266;-65
2023/06/11 04:03:23;;;;;;;9.93;8.30;;;17.60;99.90;;;;;;5132388;27;20690;-65
2023/06/11 04:05:49;;;;;;;10.17;7.63;;;17.60;99.90;;;;;;5151031;27;20658;-65
2023/06/11 04:08:15;;;;;;;8.70;7.90;;;17.60;99.90;;;;;;5150828;27;20702;-66
2023/06/11 04:10:41;;;;;;;12.13;8.17;;;17.70;99.90;;;;;;5150985;27;20941;-65
2023/06/11 04:13:06;;;;;;;8.83;7.93;;;17.70;99.90;;;;;;5150832;27;20193;-65
2023/06/11 04:15:32;;;;;;;9.03;8.23;;;17.70;99.90;;;;;;5150765;27;20201;-65
2023/06/11 04:17:57;;;;;;;9.33;7.93;;;17.80;99.90;;;;;;5131522;27;20751;-65
2023/06/11 04:20:23;;;;;;;9.50;8.23;;;17.80;99.90;;;;;;5131980;27;20563;-66
2023/06/11 04:22:49;;;;;;;11.30;7.40;;;17.90;99.90;;;;;;5131894;27;20255;-66
2023/06/11 04:25:16;;;;;;;9.90;7.63;;;17.90;99.90;;;;;;5150899;27;20200;-66
2023/06/11 04:27:43;;;;;;;9.47;8.53;;;18.00;99.90;;;;;;5150726;27;20207;-66
2023/06/11 04:30:09;;;;;;;10.53;8.07;;;18.10;99.90;;;;;;5151094;27;20413;-65
2023/06/11 04:32:36;;;;;;;7.60;6.90;;;18.10;99.90;;;;;;5151097;27;20864;-66
2023/06/11 04:35:02;;;;;;;8.57;7.77;;;18.10;99.90;;;;;;5150706;27;20785;-66
2023/06/11 04:37:30;;;;;;;8.53;7.70;;;18.20;99.90;;;;;;5150839;27;20491;-66
2023/06/11 04:40:00;;;;;;;8.13;7.33;;;18.30;99.90;;;;;;5150881;27;20895;-66
2023/06/11 04:42:25;;;;;;;8.50;7.60;;;18.40;99.90;;;;;;5150672;27;20946;-66
2023/06/11 04:44:52;;;;;;;8.73;7.93;;;18.50;99.90;;;;;;5115287;27;20421;-65
2023/06/11 04:47:22;;;;;;;9.00;7.60;;;18.60;99.90;;;;;;5151021;27;20194;-66
2023/06/11 04:49:52;;;;;;;8.30;7.50;;;18.60;99.90;;;;;;5151196;27;20420;-65
2023/06/11 04:52:17;;;;;;;13.53;8.47;;;18.70;99.90;;;;;;5151316;27;20406;-65
2023/06/11 04:54:45;;;;;;;8.37;7.43;;;18.70;99.90;;;;;;5151413;27;20420;-65
2023/06/11 04:57:13;;;;;;;9.37;7.50;;;18.80;99.90;;;;;;5151207;27;20183;-66
2023/06/11 04:59:38;;;;;;;7.90;7.17;;;18.90;99.90;;;;;;5151438;27;20410;-65
2023/06/11 05:02:04;;;;;;;14.63;8.53;;;19.10;99.90;;;;;;5151291;27;20924;-65
2023/06/11 05:04:31;;;;;;;8.87;7.03;;;19.00;99.90;;;;;;5151099;27;20173;-66
2023/06/11 05:07:00;;;;;;;10.73;6.90;;;19.10;99.90;;;;;;5151265;27;20803;-66
2023/06/11 05:09:25;;;;;;;7.37;6.70;;;19.20;99.90;;;;;;5132403;27;20444;-67
2023/06/11 05:11:51;;;;;;;6.47;5.87;;;19.20;99.90;;;;;;5150775;27;20418;-66
2023/06/11 05:14:16;;;;;;;7.23;6.20;;;19.40;99.90;;;;;;5150643;27;20561;-66
2023/06/11 05:16:42;;;;;;;7.40;6.60;;;19.40;99.90;;;;;;5150524;27;20619;-66
2023/06/11 05:19:08;;;;;;;6.83;6.13;;;19.60;99.90;;;;;;5150505;27;20952;-65
2023/06/11 05:21:33;;;;;;;8.20;7.23;;;19.60;99.90;;;;;;5150294;27;20218;-65
2023/06/11 05:24:06;;;;;;;7.17;6.47;;;19.70;99.90;;;;;;5131770;27;20198;-65
2023/06/11 05:26:36;;;;;;;6.77;6.17;;;19.70;99.90;;;;;;5150188;27;20268;-72
2023/06/11 05:29:03;;;;;;;7.00;6.40;;;19.90;99.90;;;;;;5151693;27;20432;-72
2023/06/11 05:31:29;;;;;;;7.90;7.10;;;19.90;99.90;;;;;;5154365;27;20420;-71
2023/06/11 05:33:55;;;;;;;6.77;6.10;;;20.00;99.90;;;;;;5154241;27;20526;-73
2023/06/11 05:36:22;;;;;;;8.13;7.17;;;20.00;99.90;;;;;;5135642;27;20425;-73
2023/06/11 05:38:47;;;;;;;7.47;6.77;;;20.10;99.90;;;;;;5154496;27;20437;-72
2023/06/11 05:41:13;;;;;;;9.60;7.67;;;20.30;99.90;;;;;;5154188;27;20453;-72
2023/06/11 05:43:39;;;;;;;8.47;7.03;;;20.40;99.90;;;;;;5154182;27;20172;-73
2023/06/11 05:46:05;;;;;;;9.63;7.00;;;20.20;99.90;;;;;;5135229;27;20302;-72
2023/06/11 05:48:31;;;;;;;6.50;6.00;;;20.40;99.90;;;;;;5135535;27;20283;-72
2023/06/11 05:50:57;;;;;;;8.93;7.70;;;20.50;99.90;;;;;;5154000;27;20521;-72
2023/06/11 05:53:22;;;;;;;8.83;7.37;;;20.70;99.90;;;;;;5154151;27;20249;-71
2023/06/11 05:55:48;;;;;;;7.47;6.67;;;20.80;99.90;;;;;;5135487;27;20941;-71
2023/06/11 05:58:14;;;;;;;8.10;7.17;;;20.90;99.90;;;;;;5154106;27;20273;-72
2023/06/11 06:00:42;;;;;;;9.90;6.57;;;21.00;99.90;;;;;;5153885;27;20221;-71
2023/06/11 06:03:08;;;;;;;10.77;6.80;;;20.90;99.90;;;;;;5153927;27;20626;-72
2023/06/11 06:05:34;;;;;;;8.50;6.40;;;20.90;99.90;;;;;;5154019;27;20444;-71
2023/06/11 06:08:00;;;;;;;8.73;6.60;;;21.00;99.90;;;;;;5154105;27;20442;-71
2023/06/11 06:10:25;;;;;;;8.37;7.57;;;21.30;99.90;;;;;;5154413;27;20214;-71
2023/06/11 06:12:51;;;;;;;10.70;6.63;;;21.10;99.90;;;;;;5135980;27;20592;-73
2023/06/11 06:15:17;;;;;;;6.23;5.73;;;21.20;99.90;;;;;;5154364;27;20236;-73
2023/06/11 06:17:42;;;;;;;7.83;6.60;;;21.40;99.90;;;;;;5135538;27;20197;-73
2023/06/11 06:20:10;;;;;;;7.83;6.10;;;21.50;99.90;;;;;;5135665;27;20188;-72
2023/06/11 06:22:37;;;;;;;7.60;6.20;;;21.70;99.90;;;;;;5135415;27;20265;-73
2023/06/11 06:25:03;;;;;;;7.43;6.63;;;21.90;99.90;;;;;;5154120;27;20418;-73
2023/06/11 06:27:30;;;;;;;7.20;6.53;;;21.80;99.90;;;;;;5155305;27;20526;-73
2023/06/11 06:29:56;;;;;;;8.20;6.37;;;21.80;99.90;;;;;;5137045;27;20501;-73
2023/06/11 06:32:21;;;;;;;11.10;6.67;;;21.80;99.90;;;;;;5155091;27;20509;-73
2023/06/11 06:34:47;;;;;;;6.60;6.00;;;21.80;99.90;;;;;;5155216;27;20193;-74
2023/06/11 06:37:12;;;;;;;7.57;6.00;;;22.00;99.90;;;;;;5118700;27;20184;-73
2023/06/11 06:39:38;;;;;;;7.13;6.43;;;22.10;99.90;;;;;;5153216;27;20185;-73
2023/06/11 06:42:04;;;;;;;7.80;6.70;;;22.20;99.90;;;;;;5135065;27;20698;-73
2023/06/11 06:44:30;;;;;;;9.00;5.73;;;22.10;99.90;;;;;;5135535;27;20272;-73
2023/06/11 06:46:55;;;;;;;9.37;6.30;;;22.30;99.90;;;;;;5135250;27;20411;-73
2023/06/11 06:49:21;;;;;;;8.57;6.37;;;22.50;99.90;;;;;;5153764;27;20193;-72
2023/06/11 06:51:47;;;;;;;6.20;5.60;;;22.50;99.90;;;;;;5118381;27;20184;-72
2023/06/11 06:54:13;;;;;;;6.60;5.90;;;22.60;99.90;;;;;;5153807;27;20659;-72
2023/06/11 06:56:38;;;;;;;7.20;6.50;;;22.80;99.90;;;;;;5153395;27;20178;-73
2023/06/11 06:59:04;;;;;;;6.93;5.83;;;22.60;99.90;;;;;;5153272;27;20866;-73
2023/06/11 07:01:30;;;;;;;7.57;6.63;;;22.40;99.90;;;;;;5152473;27;20205;-73
2023/06/11 07:03:56;;;;;;;7.10;6.30;;;22.50;99.90;;;;;;5151854;27;20875;-73
2023/06/11 07:06:21;;;;;;;6.10;5.17;;;22.70;99.90;;;;;;5132484;27;20231;-74
2023/06/11 07:08:47;;;;;;;6.07;5.57;;;22.80;99.90;;;;;;5151031;27;20204;-73
2023/06/11 07:11:15;;;;;;;6.97;6.27;;;22.80;99.90;;;;;;5151019;27;20229;-72
2023/06/11 07:13:40;;;;;;;10.50;6.30;;;22.60;99.90;;;;;;5132255;27;20182;-72
2023/06/11 07:16:06;;;;;;;5.87;5.33;;;22.50;99.90;;;;;;5150988;27;20417;-72
2023/06/11 07:18:32;;;;;;;7.73;6.57;;;22.40;99.90;;;;;;5151148;27;20229;-72
2023/06/11 07:20:58;;;;;;;7.17;6.47;;;22.50;99.90;;;;;;5131930;27;20184;-72
2023/06/11 07:23:24;;;;;;;5.80;5.17;;;22.30;99.90;;;;;;5131934;27;20426;-72
2023/06/11 07:25:50;;;;;;;6.83;5.70;;;22.40;99.90;;;;;;5150753;27;20416;-72
2023/06/11 07:28:16;;;;;;;9.13;5.77;;;22.70;99.90;;;;;;5151050;27;20201;-72
2023/06/11 07:30:41;;;;;;;6.63;5.90;;;22.90;99.90;;;;;;5150762;27;20409;-72
2023/06/11 07:33:08;;;;;;;7.90;6.27;;;23.10;99.90;;;;;;5150685;27;20188;-72
2023/06/11 07:35:33;;;;;;;6.67;5.93;;;23.10;99.90;;;;;;5150456;27;20180;-72
2023/06/11 07:37:59;;;;;;;6.87;6.27;;;23.20;99.90;;;;;;5131729;27;20457;-72
2023/06/11 07:40:25;;;;;;;7.23;6.03;;;23.20;99.90;;;;;;5151000;27;20658;-73
2023/06/11 07:42:50;;;;;;;7.17;5.20;;;23.30;99.90;;;;;;5151010;27;20242;-72
2023/06/11 07:45:16;;;;;;;6.17;5.57;;;23.40;99.10;;;;;;5114980;27;20177;-72
2023/06/11 07:47:42;;;;;;;6.10;5.60;;;23.50;99.70;;;;;;5131968;27;20305;-72
2023/06/11 07:50:09;;;;;;;6.10;5.60;;;23.30;98.70;;;;;;5132440;27;20604;-76
2023/06/11 07:52:35;;;;;;;6.53;5.87;;;23.30;99.00;;;;;;5131022;27;20691;-76
2023/06/11 07:55:00;;;;;;;6.20;5.60;;;23.40;98.10;;;;;;5115088;27;20434;-76
2023/06/11 07:57:26;;;;;;;7.70;4.87;;;23.40;98.50;;;;;;5132332;27;20755;-76
2023/06/11 07:59:52;;;;;;;6.17;5.00;;;23.60;98.20;;;;;;5132468;27;20193;-76
2023/06/11 08:02:18;;;;;;;4.93;4.50;;;23.60;99.60;;;;;;5131946;27;20253;-77
2023/06/11 08:04:44;;;;;;;5.83;5.10;;;23.60;98.60;;;;;;5097975;27;20419;-76
2023/06/11 08:07:10;;;;;;;5.67;5.13;;;23.40;98.40;;;;;;5131878;27;20183;-76
2023/06/11 08:09:36;;;;;;;11.20;5.50;;;23.60;97.90;;;;;;5150684;27;20412;-76
2023/06/11 08:12:06;;;;;;;7.10;4.70;;;23.60;96.90;;;;;;5131962;27;20794;-77
2023/06/11 08:14:33;;;;;;;5.50;5.00;;;23.70;97.20;;;;;;5131720;27;20465;-76
2023/06/11 08:16:58;;;;;;;8.60;5.13;;;23.70;97.20;;;;;;5150659;27;20506;-76
2023/06/11 08:19:24;;;;;;;8.57;5.17;;;23.70;96.60;;;;;;5114803;27;20587;-75
2023/06/11 08:21:50;;;;;;;5.37;4.87;;;23.80;97.40;;;;;;5114884;27;20215;-74
2023/06/11 08:24:17;;;;;;;6.90;5.43;;;23.50;96.10;;;;;;5150359;27;20183;-74
2023/06/11 08:26:43;;;;;;;5.40;4.73;;;23.60;95.90;;;;;;5151276;27;20742;-74
2023/06/11 08:29:08;;;;;;;6.03;4.77;;;23.70;95.70;;;;;;5131763;27;20450;-74
2023/06/11 08:31:34;;;;;;;5.73;5.23;;;23.90;96.40;;;;;;5150879;27;20187;-74
2023/06/11 08:33:59;;;;;;;5.13;4.63;;;24.20;97.60;;;;;;5115150;27;20193;-75
2023/06/11 08:36:26;;;;;;;12.40;5.30;;;24.40;95.70;;;;;;5150253;27;20219;-74
2023/06/11 08:38:51;;;;;;;5.43;4.93;;;24.30;94.60;;;;;;5150122;27;20202;-75
2023/06/11 08:41:17;;;;;;;9.87;5.60;;;24.50;94.80;;;;;;5131175;27;20526;-75
2023/06/11 08:43:43;;;;;;;6.40;4.93;;;24.20;93.30;;;;;;5131533;27;20179;-76
2023/06/11 08:46:15;;;;;;;7.87;5.20;;;24.40;93.40;;;;;;5131326;27;20178;-76
2023/06/11 08:48:43;;;;;;;5.67;5.10;;;24.90;93.30;;;;;;5131457;27;20507;-75
2023/06/11 08:51:12;;;;;;;7.10;5.20;;;25.20;93.10;;;;;;5131216;27;20415;-76
2023/06/11 08:53:39;;;;;;;6.50;4.40;;;25.40;92.20;;;;;;5149900;27;20417;-76
2023/06/11 08:56:05;;;;;;;5.70;5.00;;;25.60;91.70;;;;;;5131869;27;20461;-76
2023/06/11 08:58:34;;;;;;;9.07;4.70;;;25.80;90.60;;;;;;5131584;27;20443;-75
2023/06/11 09:01:09;;;;;;;6.07;4.70;;;25.70;91.80;;;;;;5150431;27;20406;-75
2023/06/11 09:03:35;;;;;;;6.30;4.73;;;25.20;89.10;;;;;;5149999;27;20461;-74
2023/06/11 09:06:01;;;;;;;5.47;4.97;;;25.30;90.30;;;;;;5113539;27;20417;-75
2023/06/11 09:08:27;;;;;;;8.40;5.37;;;25.40;89.00;;;;;;5149703;27;20440;-76
2023/06/11 09:10:52;;;;;;;9.20;4.70;;;25.70;90.30;;;;;;5149668;27;20501;-75
2023/06/11 09:13:18;;;;;;;11.73;4.97;;;26.20;89.50;;;;;;5113917;27;20294;-75
2023/06/11 09:15:53;;;;;;;5.50;5.00;;;25.90;88.10;;;;;;5130920;27;20188;-74
2023/06/11 09:18:23;;;;;;;7.40;4.40;;;26.20;88.60;;;;;;5149666;27;20824;-75
2023/06/11 09:20:50;;;;;;;5.90;5.37;;;26.10;85.90;;;;;;5149725;27;20416;-74
2023/06/11 09:23:30;;;;;;;8.67;5.40;;;25.80;86.60;;;;;;5149648;27;20524;-72
2023/06/11 09:25:56;;;;;;;6.33;4.87;;;25.80;85.90;;;;;;5112991;27;20433;-72
2023/06/11 09:28:28;;;;;;;7.07;5.07;;;25.70;86.10;;;;;;5149055;27;20445;-71
2023/06/11 09:30:58;;;;;;;6.37;5.40;;;25.70;86.20;;;;;;5130151;27;20553;-73
2023/06/11 09:33:24;;;;;;;5.57;5.03;;;25.40;85.10;;;;;;5149120;27;20431;-73
2023/06/11 09:35:50;;;;;;;5.57;4.83;;;25.70;85.60;;;;;;5148918;27;20409;-69
2023/06/11 09:38:17;;;;;;;5.30;4.80;;;26.10;86.70;;;;;;5148557;27;20436;-76
2023/06/11 09:40:51;;;;;;;9.93;4.90;;;26.40;85.50;;;;;;5130268;27;20428;-71
2023/06/11 09:43:23;;;;;;;5.93;4.83;;;26.60;86.30;;;;;;5113019;27;20461;-70
2023/06/11 09:45:52;;;;;;;5.43;4.93;;;26.80;85.40;;;;;;5129628;27;20421;-72
2023/06/11 09:48:19;;;;;;;7.63;5.37;;;26.80;83.70;;;;;;5132201;27;21005;-72
2023/06/11 09:50:49;;;;;;;6.00;5.40;;;26.50;81.40;;;;;;5130654;27;20453;-71
2023/06/11 09:53:15;;;;;;;7.00;5.10;;;26.40;84.20;;;;;;5131446;27;20436;-71
2023/06/11 09:55:41;;;;;;;11.10;4.97;;;26.10;82.70;;;;;;5149598;27;20983;-73
2023/06/11 09:58:08;;;;;;;8.63;5.40;;;26.30;83.40;;;;;;5130321;27;20847;-71
2023/06/11 10:00:37;;;;;;;8.87;4.57;;;26.50;84.30;;;;;;5130599;27;20180;-72
2023/06/11 10:03:04;;;;;;;5.47;4.93;;;26.80;84.70;;;;;;5149963;27;20464;-70
2023/06/11 10:05:32;;;;;;;6.33;4.63;;;27.00;81.80;;;;;;5151092;27;20462;-70
2023/06/11 10:08:06;;;;;;;5.50;5.00;;;27.10;80.10;;;;;;5149213;27;20429;-73
2023/06/11 10:10:39;;;;;;;6.30;4.70;;;27.30;81.60;;;;;;5149317;27;20441;-72
2023/06/11 10:13:04;;;;;;;7.50;5.33;;;27.50;78.70;;;;;;5149235;27;20406;-73
2023/06/11 10:15:31;;;;;;;6.30;5.50;;;27.20;79.10;;;;;;5132572;27;20421;-75
2023/06/11 10:17:58;;;;;;;7.30;4.50;;;27.20;78.20;;;;;;5153035;27;20203;-74
2023/06/11 10:20:35;;;;;;;7.73;4.70;;;27.50;79.20;;;;;;5153539;27;20418;-74
2023/06/11 10:23:11;;;;;;;6.80;5.13;;;27.60;77.40;;;;;;5152456;27;20457;-71
2023/06/11 10:25:39;;;;;;;5.80;5.30;;;27.60;77.60;;;;;;5153636;27;20458;-76
2023/06/11 10:28:06;;;;;;;9.70;5.17;;;27.60;76.80;;;;;;5153153;27;20577;-73
2023/06/11 10:30:32;;;;;;;5.03;4.53;;;27.30;75.70;;;;;;5135166;27;20473;-76
2023/06/11 10:33:00;;;;;;;5.90;4.70;;;27.40;76.70;;;;;;5134634;27;20425;-70
2023/06/11 10:35:32;;;;;;;4.93;4.53;;;27.70;76.20;;;;;;5154033;27;20187;-70
2023/06/11 10:38:12;;;;;;;7.17;5.30;;;27.20;76.00;;;;;;5154128;27;20448;-70
2023/06/11 10:40:39;;;;;;;4.80;4.40;;;27.00;75.50;;;;;;5151913;27;20491;-72
2023/06/11 10:43:21;;;;;;;5.77;5.27;;;27.00;76.20;;;;;;5152696;27;20873;-71
2023/06/11 10:45:59;;;;;;;6.00;4.60;;;27.10;75.90;;;;;;5151462;27;20425;-71
2023/06/11 10:48:29;;;;;;;9.00;4.90;;;27.40;74.60;;;;;;5133358;27;20541;-73
2023/06/11 10:51:05;;;;;;;7.17;4.67;;;27.30;73.20;;;;;;5152127;27;20442;-73
2023/06/11 10:53:39;;;;;;;8.67;4.90;;;27.40;73.60;;;;;;5118605;27;20414;-74
2023/06/11 10:56:09;;;;;;;5.47;4.77;;;27.40;74.60;;;;;;5134245;27;20417;-74
2023/06/11 10:58:35;;;;;;;5.80;5.13;;;27.60;73.60;;;;;;5152354;27;20441;-78
2023/06/11 11:01:03;;;;;;;6.10;4.90;;;27.70;74.90;;;;;;5136767;27;20918;-76
2023/06/11 11:03:30;;;;;;;5.37;4.87;;;27.90;73.90;;;;;;5151189;27;20204;-77
2023/06/11 11:05:57;;;;;;;4.87;4.47;;;28.00;72.20;;;;;;5151769;27;20410;-74
2023/06/11 11:08:23;;;;;;;5.97;4.73;;;28.00;72.10;;;;;;5132076;27;20534;-73
2023/06/11 11:11:02;;;;;;;4.63;4.23;;;28.10;72.50;;;;;;5150686;27;20440;-73
2023/06/11 11:13:31;;;;;;;5.37;4.57;;;28.10;71.30;;;;;;5132728;27;20173;-72
2023/06/11 11:16:00;;;;;;;4.93;3.90;;;27.70;69.10;;;;;;5131914;27;20470;-72
2023/06/11 11:18:26;;;;;;;4.97;4.47;;;27.70;66.10;;;;;;5131899;27;20873;-73
2023/06/11 11:20:56;;;;;;;5.57;4.03;;;28.00;68.30;;;;;;5151134;27;20410;-74
2023/06/11 11:23:24;;;;;;;7.93;4.87;;;27.80;69.60;;;;;;5132489;27;20510;-73
2023/06/11 11:25:51;;;;;;;5.43;4.80;;;28.00;68.90;;;;;;5131606;27;20418;-73
2023/06/11 11:28:17;;;;;;;4.60;4.20;;;28.20;66.60;;;;;;5150298;27;20513;-74
2023/06/11 11:30:42;;;;;;;5.37;4.67;;;28.20;66.10;;;;;;5132195;27;20497;-73
2023/06/11 11:33:08;;;;;;;11.33;3.93;;;28.10;65.40;;;;;;5114896;27;20446;-73
2023/06/11 11:35:45;;;;;;;4.90;4.00;;;28.20;69.20;;;;;;5150508;27;20183;-73
2023/06/11 11:38:11;;;;;;;4.50;4.20;;;28.30;68.80;;;;;;5150931;27;20204;-70
2023/06/11 11:40:37;;;;;;;4.70;4.30;;;28.40;68.60;;;;;;5132011;27;20428;-70
2023/06/11 11:43:02;;;;;;;5.60;4.27;;;28.30;65.80;;;;;;5150317;27;20214;-70
2023/06/11 11:45:33;;;;;;;5.37;4.47;;;28.40;67.70;;;;;;5150375;27;20229;-69
2023/06/11 11:48:00;;;;;;;4.57;4.17;;;28.30;65.90;;;;;;5150235;27;20710;-70
2023/06/11 11:50:27;;;;;;;4.33;3.70;;;28.30;64.30;;;;;;5131393;27;20410;-71
2023/06/11 11:53:06;;;;;;;4.97;3.93;;;28.40;64.50;;;;;;5150165;27;20447;-71
2023/06/11 11:55:37;;;;;;;5.57;4.20;;;28.40;62.60;;;;;;5150579;27;20910;-71
2023/06/11 11:58:05;;;;;;;4.60;4.20;;;28.30;63.50;;;;;;5150235;27;20434;-70
2023/06/11 12:00:31;;;;;;;4.80;4.33;;;28.30;65.60;;;;;;5150384;27;20418;-71
2023/06/11 12:02:57;;;;;;;6.80;4.50;;;28.20;65.00;;;;;;5150274;27;20518;-70
2023/06/11 12:05:32;;;;;;;4.67;3.60;;;28.10;63.90;;;;;;5150320;27;20522;-70
2023/06/11 12:07:58;;;;;;;4.17;3.87;;;28.10;63.20;;;;;;5131882;27;21047;-69
2023/06/11 12:10:26;;;;;;;7.83;3.97;;;28.10;63.00;;;;;;5150251;27;20410;-75
2023/06/11 12:12:55;;;;;;;6.33;4.53;;;28.30;62.70;;;;;;5131300;27;20261;-70
2023/06/11 12:15:20;;;;;;;5.73;4.80;;;28.40;63.50;;;;;;5150121;27;20421;-70
2023/06/11 12:17:46;;;;;;;7.87;4.33;;;28.40;63.50;;;;;;5150020;27;20525;-71
2023/06/11 12:20:12;;;;;;;7.50;4.23;;;28.40;62.90;;;;;;5150053;27;20690;-71
2023/06/11 12:22:38;;;;;;;4.77;4.37;;;28.40;63.20;;;;;;5149899;27;20208;-70
2023/06/11 12:25:04;;;;;;;4.40;4.00;;;28.20;64.70;;;;;;5150221;27;20818;-71
2023/06/11 12:27:30;;;;;;;5.60;4.40;;;28.30;63.30;;;;;;5149827;27;20484;-72
2023/06/11 12:29:57;;;;;;;4.57;4.20;;;28.40;61.80;;;;;;5132518;27;20425;-70
2023/06/11 12:32:25;;;;;;;4.13;3.50;;;28.20;63.70;;;;;;5150542;27;20525;-70
2023/06/11 12:34:51;;;;;;;4.63;4.23;;;28.40;64.50;;;;;;5131811;27;20516;-70
2023/06/11 12:37:17;;;;;;;7.47;4.70;;;28.40;64.20;;;;;;5150139;27;20454;-71
2023/06/11 12:39:43;;;;;;;4.40;4.00;;;28.60;66.80;;;;;;5150543;27;20503;-70
2023/06/11 12:42:21;;;;;;;5.27;4.77;;;28.60;64.00;;;;;;5150212;27;20462;-71
2023/06/11 12:44:47;;;;;;;5.97;4.57;;;28.60;63.40;;;;;;5150205;27;20401;-71